Siem Pilot — VOBN — position and weather

sailwx.info

Track history (hours):
 
Tides and Currents Weather Stations Pressure Air Temp Water Temp Dewpoint Dewpoint Depression Visibility Wind Speed Wind Dir Waves Ship Positions

Siem Pilot

Last reported at 2018-Feb-17 11:53 UTC. Time now 2018-Feb-18 03:41 UTC.
Position N 47°34' W 052°42'.

Length 88 m; draft 6.2 m.

Type: Other ship. MMSI: 316014390.

Date/timePositionNaut miles runAvg speedWind from/ knotsBaromVisibWave heightAir tempDewpointWater temp
2018-Feb-17 11:53N 47°34' W 052°42'4 8.4
2018-Feb-17 11:25N 47°33' W 052°36'4 9.1
2018-Feb-17 10:57N 47°32' W 052°30'7 9.1
2018-Feb-17 10:14N 47°29' W 052°21'2 9.5
2018-Feb-17 09:58N 47°28' W 052°18'  
2018-Feb-12 13:38N 47°34' W 052°42'0 0.0
2018-Feb-12 11:08N 47°34' W 052°42'2 5.2
2018-Feb-12 10:43N 47°34' W 052°39'2 7.3
2018-Feb-12 10:30N 47°33' W 052°37'4 7.6
2018-Feb-12 09:57N 47°32' W 052°31'4 7.2
2018-Feb-12 09:27N 47°31' W 052°26'4 7.8
2018-Feb-12 08:56N 47°29' W 052°20'  
2018-Feb-07 21:49N 47°31' W 052°26'410.2
2018-Feb-07 21:28N 47°32' W 052°31'  
Track history (hours):
 
Tides and Currents Weather Stations Pressure Air Temp Water Temp Dewpoint Dewpoint Depression Visibility Wind Speed Wind Dir Waves Ship Positions

Siem Pilot

Last reported at 2018-Feb-17 11:53 UTC. Time now 2018-Feb-18 03:41 UTC.
Position N 47°34' W 052°42'.

Length 88 m; draft 6.2 m.

Type: Other ship. MMSI: 316014390.

Date/timePositionNaut miles runAvg speedWind from/ knotsBaromVisibWave heightAir tempDewpointWater temp
2018-Feb-17 11:53N 47°34' W 052°42'4 8.4
2018-Feb-17 11:25N 47°33' W 052°36'4 9.1
2018-Feb-17 10:57N 47°32' W 052°30'7 9.1
2018-Feb-17 10:14N 47°29' W 052°21'2 9.5
2018-Feb-17 09:58N 47°28' W 052°18'  
2018-Feb-12 13:38N 47°34' W 052°42'0 0.0
2018-Feb-12 11:08N 47°34' W 052°42'2 5.2
2018-Feb-12 10:43N 47°34' W 052°39'2 7.3
2018-Feb-12 10:30N 47°33' W 052°37'4 7.6
2018-Feb-12 09:57N 47°32' W 052°31'4 7.2
2018-Feb-12 09:27N 47°31' W 052°26'4 7.8
2018-Feb-12 08:56N 47°29' W 052°20'  
2018-Feb-07 21:49N 47°31' W 052°26'410.2
2018-Feb-07 21:28N 47°32' W 052°31'  

Dump ship's entire track history